FWV8 EDDL-EDDM
Flight info
| Callsign | FWV8 |
|---|---|
| Flight time | N/A |
| Altitude | 33000 |
| Route | DODEN1T/23L DODEN Y853 BOMBI T104 HAREM/N0420F270 T104 ROKIL |
| Aircraft | B38M/M-SDE1FGHILORVWXY/HB1 |
Departure
| Time | 2026-05-04 17:47 |
|---|---|
| Airport | Düsseldorf Airport (EDDL) |
Arrival
| Time | N/A |
|---|---|
| Airport | Munich Airport (EDDM) |
| Time | Latitude | Longitude | Altitude | Speed | Heading |
|---|---|---|---|---|---|
| 2026-05-04 17:05 | 51.27642 | 6.75369 | 117 ft | 0 kts | 243° |
| 2026-05-04 17:35 | 51.27646 | 6.75381 | 134 ft | 4 kts | 245° |
| 2026-05-04 17:35 | 51.27655 | 6.75420 | 110 ft | 4 kts | 256° |
| 2026-05-04 17:36 | 51.27658 | 6.75462 | 119 ft | 4 kts | 275° |
| 2026-05-04 17:36 | 51.27651 | 6.75499 | 118 ft | 4 kts | 317° |
| 2026-05-04 17:36 | 51.27644 | 6.75507 | 119 ft | 0 kts | 333° |
| 2026-05-04 17:40 | 51.27648 | 6.75504 | 120 ft | 2 kts | 333° |
| 2026-05-04 17:40 | 51.27675 | 6.75482 | 118 ft | 6 kts | 333° |
| 2026-05-04 17:40 | 51.27724 | 6.75443 | 120 ft | 9 kts | 333° |
| 2026-05-04 17:40 | 51.27820 | 6.75390 | 120 ft | 12 kts | 17° |
| 2026-05-04 17:41 | 51.27882 | 6.75499 | 120 ft | 15 kts | 52° |
| 2026-05-04 17:41 | 51.27948 | 6.75639 | 119 ft | 16 kts | 53° |
| 2026-05-04 17:41 | 51.27987 | 6.75721 | 117 ft | 14 kts | 53° |
| 2026-05-04 17:41 | 51.28051 | 6.75854 | 120 ft | 16 kts | 52° |
| 2026-05-04 17:42 | 51.28124 | 6.76009 | 121 ft | 19 kts | 53° |
| 2026-05-04 17:42 | 51.28208 | 6.76184 | 117 ft | 21 kts | 52° |
| 2026-05-04 17:42 | 51.28303 | 6.76380 | 117 ft | 23 kts | 52° |
| 2026-05-04 17:42 | 51.28431 | 6.76651 | 118 ft | 24 kts | 53° |
| 2026-05-04 17:43 | 51.28523 | 6.76845 | 117 ft | 22 kts | 53° |
| 2026-05-04 17:43 | 51.28588 | 6.76983 | 117 ft | 24 kts | 53° |
| 2026-05-04 17:43 | 51.28686 | 6.77187 | 119 ft | 23 kts | 52° |
| 2026-05-04 17:43 | 51.28779 | 6.77383 | 117 ft | 19 kts | 52° |
| 2026-05-04 17:44 | 51.28864 | 6.77562 | 118 ft | 21 kts | 53° |
| 2026-05-04 17:44 | 51.28953 | 6.77748 | 118 ft | 22 kts | 53° |
| 2026-05-04 17:44 | 51.29048 | 6.77948 | 116 ft | 23 kts | 52° |
| 2026-05-04 17:44 | 51.29136 | 6.78134 | 119 ft | 21 kts | 52° |
| 2026-05-04 17:45 | 51.29226 | 6.78321 | 119 ft | 21 kts | 53° |
| 2026-05-04 17:45 | 51.29298 | 6.78474 | 119 ft | 17 kts | 52° |
| 2026-05-04 17:45 | 51.29371 | 6.78572 | 117 ft | 14 kts | 10° |
| 2026-05-04 17:45 | 51.29466 | 6.78564 | 120 ft | 15 kts | 355° |
| 2026-05-04 17:46 | 51.29536 | 6.78527 | 121 ft | 9 kts | 283° |
| 2026-05-04 17:46 | 51.29520 | 6.78469 | 117 ft | 0 kts | 230° |
| 2026-05-04 17:46 | 51.29512 | 6.78453 | 118 ft | 8 kts | 231° |
| 2026-05-04 17:46 | 51.29314 | 6.78037 | 121 ft | 91 kts | 233° |
| 2026-05-04 17:47 | 51.28767 | 6.76892 | 120 ft | 165 kts | 232° |
| 2026-05-04 17:47 | 51.28014 | 6.75221 | 523 ft | 197 kts | 231° |
| 2026-05-04 17:47 | 51.27199 | 6.73479 | 1721 ft | 190 kts | 232° |
| 2026-05-04 17:47 | 51.26373 | 6.71730 | 2532 ft | 208 kts | 231° |
| 2026-05-04 17:48 | 51.25455 | 6.69775 | 3095 ft | 238 kts | 232° |
| 2026-05-04 17:48 | 51.24467 | 6.67654 | 4194 ft | 241 kts | 232° |
| 2026-05-04 17:48 | 51.23402 | 6.65465 | 5005 ft | 258 kts | 224° |
| 2026-05-04 17:48 | 51.21858 | 6.64016 | 6015 ft | 259 kts | 194° |
| 2026-05-04 17:49 | 51.20058 | 6.63818 | 7040 ft | 265 kts | 175° |
| 2026-05-04 17:49 | 51.18194 | 6.64072 | 7988 ft | 271 kts | 175° |
| 2026-05-04 17:49 | 51.16312 | 6.64462 | 8977 ft | 276 kts | 164° |
| 2026-05-04 17:49 | 51.14606 | 6.65918 | 9700 ft | 284 kts | 140° |
| 2026-05-04 17:50 | 51.13464 | 6.68468 | 9907 ft | 288 kts | 115° |
| 2026-05-04 17:50 | 51.13123 | 6.71618 | 9976 ft | 294 kts | 91° |
| 2026-05-04 17:50 | 51.13253 | 6.74837 | 9980 ft | 296 kts | 90° |
| 2026-05-04 17:50 | 51.13377 | 6.78101 | 9967 ft | 296 kts | 90° |
| 2026-05-04 17:51 | 51.13500 | 6.81375 | 9979 ft | 297 kts | 90° |
| 2026-05-04 17:51 | 51.13624 | 6.84674 | 10451 ft | 303 kts | 89° |
| 2026-05-04 17:51 | 51.13752 | 6.88127 | 10986 ft | 321 kts | 89° |
| 2026-05-04 17:51 | 51.13885 | 6.91741 | 11626 ft | 334 kts | 89° |
| 2026-05-04 17:52 | 51.14021 | 6.95463 | 12482 ft | 338 kts | 89° |
| 2026-05-04 17:52 | 51.14157 | 6.99230 | 13390 ft | 343 kts | 89° |
| 2026-05-04 17:52 | 51.14293 | 7.02996 | 14208 ft | 348 kts | 89° |
| 2026-05-04 17:52 | 51.14430 | 7.06862 | 15009 ft | 352 kts | 89° |
| 2026-05-04 17:53 | 51.14568 | 7.10783 | 15790 ft | 357 kts | 89° |
| 2026-05-04 17:53 | 51.14707 | 7.14755 | 16550 ft | 362 kts | 89° |
| 2026-05-04 17:53 | 51.14846 | 7.18795 | 17312 ft | 367 kts | 90° |
| 2026-05-04 17:53 | 51.14986 | 7.22884 | 18044 ft | 372 kts | 90° |
| 2026-05-04 17:54 | 51.15127 | 7.27025 | 18701 ft | 377 kts | 89° |
| 2026-05-04 17:54 | 51.15268 | 7.31225 | 19330 ft | 382 kts | 90° |
| 2026-05-04 17:54 | 51.15042 | 7.35413 | 19927 ft | 380 kts | 108° |
| 2026-05-04 17:54 | 51.13957 | 7.39211 | 20507 ft | 379 kts | 127° |
| 2026-05-04 17:55 | 51.12259 | 7.42429 | 21067 ft | 381 kts | 134° |
| 2026-05-04 17:55 | 51.10619 | 7.45719 | 21639 ft | 387 kts | 131° |
| 2026-05-04 17:55 | 51.08953 | 7.49103 | 22241 ft | 391 kts | 131° |
| 2026-05-04 17:55 | 51.07255 | 7.52521 | 22796 ft | 396 kts | 131° |
| 2026-05-04 17:56 | 51.05536 | 7.55967 | 23252 ft | 401 kts | 131° |
| 2026-05-04 17:56 | 51.03795 | 7.59448 | 23498 ft | 403 kts | 132° |
| 2026-05-04 17:56 | 51.02052 | 7.62926 | 23751 ft | 406 kts | 132° |
| 2026-05-04 17:56 | 51.00277 | 7.66463 | 23956 ft | 408 kts | 132° |
| 2026-05-04 17:57 | 50.98505 | 7.69989 | 24010 ft | 408 kts | 132° |
| 2026-05-04 17:57 | 50.96628 | 7.73333 | 23976 ft | 402 kts | 144° |
| 2026-05-04 17:57 | 50.94369 | 7.75766 | 24006 ft | 399 kts | 151° |
| 2026-05-04 17:57 | 50.92022 | 7.78153 | 24201 ft | 401 kts | 151° |
| 2026-05-04 17:58 | 50.89681 | 7.80581 | 24713 ft | 405 kts | 146° |
| 2026-05-04 17:58 | 50.87606 | 7.83644 | 25285 ft | 409 kts | 141° |
| 2026-05-04 17:58 | 50.85505 | 7.86697 | 25750 ft | 412 kts | 142° |
| 2026-05-04 17:58 | 50.83368 | 7.89722 | 26248 ft | 413 kts | 143° |
| 2026-05-04 17:59 | 50.81207 | 7.92744 | 26747 ft | 415 kts | 143° |
| 2026-05-04 17:59 | 50.79030 | 7.95762 | 27224 ft | 418 kts | 144° |
| 2026-05-04 17:59 | 50.74625 | 8.01845 | 28073 ft | 424 kts | 144° |
| 2026-05-04 18:00 | 50.72400 | 8.04910 | 28518 ft | 426 kts | 144° |
| 2026-05-04 18:00 | 50.70158 | 8.07994 | 28979 ft | 428 kts | 144° |
| 2026-05-04 18:00 | 50.67935 | 8.11047 | 29406 ft | 431 kts | 144° |
| 2026-05-04 18:00 | 50.65640 | 8.14196 | 29838 ft | 433 kts | 145° |
| 2026-05-04 18:01 | 50.63392 | 8.17277 | 30211 ft | 436 kts | 145° |
| 2026-05-04 18:01 | 50.61096 | 8.20419 | 30558 ft | 438 kts | 145° |
| 2026-05-04 18:01 | 50.58791 | 8.23569 | 30892 ft | 440 kts | 145° |
| 2026-05-04 18:02 | 50.54157 | 8.29887 | 31659 ft | 442 kts | 144° |
| 2026-05-04 18:02 | 50.51827 | 8.33058 | 32014 ft | 444 kts | 144° |
| 2026-05-04 18:02 | 50.49494 | 8.36228 | 32474 ft | 443 kts | 144° |
| 2026-05-04 18:02 | 50.47165 | 8.39389 | 32853 ft | 443 kts | 144° |
| 2026-05-04 18:03 | 50.44820 | 8.42567 | 32997 ft | 446 kts | 144° |
| 2026-05-04 18:03 | 50.42480 | 8.45734 | 32981 ft | 444 kts | 144° |
| 2026-05-04 18:03 | 50.37844 | 8.51995 | 32988 ft | 443 kts | 144° |
| 2026-05-04 18:04 | 50.33174 | 8.58287 | 32978 ft | 443 kts | 144° |
| 2026-05-04 18:05 | 50.26204 | 8.67645 | 32971 ft | 439 kts | 144° |
| 2026-05-04 18:05 | 50.21563 | 8.73855 | 32971 ft | 439 kts | 144° |
| 2026-05-04 18:06 | 50.14599 | 8.83143 | 32974 ft | 439 kts | 144° |
| 2026-05-04 18:06 | 50.09985 | 8.89276 | 32971 ft | 439 kts | 144° |
| 2026-05-04 18:07 | 50.05340 | 8.95434 | 32969 ft | 438 kts | 144° |
| 2026-05-04 18:07 | 50.00702 | 9.01567 | 32975 ft | 437 kts | 145° |
| 2026-05-04 18:08 | 49.96064 | 9.07684 | 32972 ft | 437 kts | 145° |
| 2026-05-04 18:08 | 49.91422 | 9.13791 | 32959 ft | 439 kts | 144° |
| 2026-05-04 18:09 | 49.82102 | 9.26001 | 32960 ft | 440 kts | 144° |
| 2026-05-04 18:10 | 49.77419 | 9.32113 | 32968 ft | 440 kts | 144° |
| 2026-05-04 18:10 | 49.72734 | 9.38211 | 32966 ft | 440 kts | 144° |
| 2026-05-04 18:11 | 49.68047 | 9.44297 | 32971 ft | 440 kts | 144° |
| 2026-05-04 18:11 | 49.63354 | 9.50373 | 32957 ft | 441 kts | 144° |
| 2026-05-04 18:12 | 49.58676 | 9.56415 | 32972 ft | 442 kts | 144° |
| 2026-05-04 18:12 | 49.53960 | 9.62490 | 32972 ft | 441 kts | 144° |
| 2026-05-04 18:13 | 49.49256 | 9.68534 | 32638 ft | 440 kts | 144° |
| 2026-05-04 18:13 | 49.44547 | 9.74569 | 32125 ft | 441 kts | 144° |
| 2026-05-04 18:14 | 49.42210 | 9.77558 | 31886 ft | 431 kts | 144° |
| 2026-05-04 18:14 | 49.39896 | 9.80513 | 31586 ft | 435 kts | 144° |
| 2026-05-04 18:14 | 49.37649 | 9.83650 | 31065 ft | 440 kts | 136° |
| 2026-05-04 18:15 | 49.33611 | 9.90678 | 29860 ft | 437 kts | 135° |
| 2026-05-04 18:15 | 49.29631 | 9.97533 | 28762 ft | 429 kts | 136° |
| 2026-05-04 18:15 | 49.27654 | 10.00933 | 28248 ft | 426 kts | 136° |
| 2026-05-04 18:16 | 49.25692 | 10.04302 | 27735 ft | 422 kts | 136° |
| 2026-05-04 18:16 | 49.23741 | 10.07647 | 27228 ft | 419 kts | 136° |
| 2026-05-04 18:16 | 49.21808 | 10.10958 | 26734 ft | 416 kts | 136° |
| 2026-05-04 18:17 | 49.17991 | 10.17488 | 25781 ft | 409 kts | 135° |
| 2026-05-04 18:17 | 49.16099 | 10.20719 | 25292 ft | 407 kts | 135° |
| 2026-05-04 18:17 | 49.12262 | 10.27033 | 25013 ft | 406 kts | 137° |
| 2026-05-04 18:18 | 49.10346 | 10.30122 | 24992 ft | 406 kts | 137° |
| 2026-05-04 18:18 | 49.08405 | 10.33255 | 24992 ft | 406 kts | 137° |
| 2026-05-04 18:18 | 49.06465 | 10.36384 | 24994 ft | 406 kts | 137° |
| 2026-05-04 18:18 | 49.04525 | 10.39511 | 24985 ft | 406 kts | 137° |
| 2026-05-04 18:19 | 49.00642 | 10.45751 | 24995 ft | 405 kts | 137° |
| 2026-05-04 18:19 | 48.98701 | 10.48848 | 24917 ft | 400 kts | 137° |
| 2026-05-04 18:19 | 48.96780 | 10.51911 | 24319 ft | 402 kts | 137° |
| 2026-05-04 18:20 | 48.94855 | 10.54978 | 23865 ft | 399 kts | 137° |
| 2026-05-04 18:20 | 48.92971 | 10.57977 | 23361 ft | 397 kts | 137° |
| 2026-05-04 18:20 | 48.91072 | 10.60997 | 22865 ft | 392 kts | 137° |
| 2026-05-04 18:20 | 48.89195 | 10.63979 | 22171 ft | 391 kts | 136° |
| 2026-05-04 18:21 | 48.87318 | 10.66957 | 21715 ft | 388 kts | 136° |
| 2026-05-04 18:21 | 48.85453 | 10.69911 | 21205 ft | 387 kts | 136° |
| 2026-05-04 18:21 | 48.83596 | 10.72851 | 20692 ft | 385 kts | 136° |
| 2026-05-04 18:21 | 48.81743 | 10.75780 | 20191 ft | 384 kts | 136° |
| 2026-05-04 18:22 | 48.79891 | 10.78694 | 19701 ft | 383 kts | 136° |
| 2026-05-04 18:22 | 48.78068 | 10.81557 | 19224 ft | 382 kts | 137° |
| 2026-05-04 18:22 | 48.76229 | 10.84444 | 18753 ft | 380 kts | 137° |
| 2026-05-04 18:22 | 48.74393 | 10.87322 | 18277 ft | 379 kts | 137° |
| 2026-05-04 18:23 | 48.72575 | 10.90173 | 18017 ft | 371 kts | 136° |
| 2026-05-04 18:23 | 48.70864 | 10.93052 | 17751 ft | 365 kts | 134° |
| 2026-05-04 18:23 | 48.69206 | 10.95956 | 17472 ft | 364 kts | 134° |
| 2026-05-04 18:23 | 48.67555 | 10.98856 | 17199 ft | 363 kts | 134° |
| 2026-05-04 18:24 | 48.65911 | 11.01739 | 16972 ft | 361 kts | 134° |
| 2026-05-04 18:24 | 48.64273 | 11.04611 | 16919 ft | 360 kts | 134° |
| 2026-05-04 18:24 | 48.62635 | 11.07483 | 16943 ft | 361 kts | 134° |
| 2026-05-04 18:24 | 48.60998 | 11.10350 | 16933 ft | 361 kts | 134° |
| 2026-05-04 18:25 | 48.59359 | 11.13220 | 16938 ft | 361 kts | 134° |
| 2026-05-04 18:25 | 48.57742 | 11.16049 | 16944 ft | 361 kts | 134° |
| 2026-05-04 18:25 | 48.56103 | 11.18914 | 16941 ft | 361 kts | 134° |
| 2026-05-04 18:25 | 48.54463 | 11.21779 | 16943 ft | 361 kts | 134° |
| 2026-05-04 18:26 | 48.52824 | 11.24641 | 16928 ft | 361 kts | 134° |
| 2026-05-04 18:26 | 48.51190 | 11.27510 | 16944 ft | 360 kts | 134° |
| 2026-05-04 18:26 | 48.49555 | 11.30380 | 16930 ft | 360 kts | 134° |
| 2026-05-04 18:26 | 48.47912 | 11.33236 | 16939 ft | 361 kts | 134° |
| 2026-05-04 18:27 | 48.46267 | 11.36095 | 16936 ft | 361 kts | 134° |
| 2026-05-04 18:27 | 48.44621 | 11.38953 | 16938 ft | 361 kts | 134° |
| 2026-05-04 18:27 | 48.43053 | 11.41907 | 16909 ft | 364 kts | 123° |
| 2026-05-04 18:27 | 48.42263 | 11.45531 | 16929 ft | 371 kts | 97° |
| 2026-05-04 18:28 | 48.42400 | 11.49424 | 16955 ft | 375 kts | 84° |
| 2026-05-04 18:28 | 48.42748 | 11.53242 | 16890 ft | 368 kts | 84° |
| 2026-05-04 18:28 | 48.43097 | 11.56985 | 16541 ft | 356 kts | 84° |
| 2026-05-04 18:28 | 48.43444 | 11.60625 | 16150 ft | 346 kts | 84° |
| 2026-05-04 18:29 | 48.43789 | 11.64167 | 15784 ft | 337 kts | 84° |
| 2026-05-04 18:29 | 48.44128 | 11.67607 | 15449 ft | 327 kts | 84° |
| 2026-05-04 18:29 | 48.44463 | 11.70930 | 15174 ft | 315 kts | 84° |
| 2026-05-04 18:29 | 48.44787 | 11.74143 | 14851 ft | 306 kts | 84° |
| 2026-05-04 18:30 | 48.45414 | 11.80288 | 14285 ft | 288 kts | 84° |
| 2026-05-04 18:30 | 48.45723 | 11.83245 | 13898 ft | 285 kts | 84° |
| 2026-05-04 18:30 | 48.46031 | 11.86143 | 13461 ft | 283 kts | 84° |
| 2026-05-04 18:31 | 48.46339 | 11.89053 | 13003 ft | 281 kts | 84° |
| 2026-05-04 18:31 | 48.46645 | 11.91943 | 12564 ft | 278 kts | 84° |
| 2026-05-04 18:31 | 48.46950 | 11.94816 | 12100 ft | 277 kts | 84° |
| 2026-05-04 18:31 | 48.47250 | 11.97672 | 11662 ft | 275 kts | 84° |
| 2026-05-04 18:32 | 48.47544 | 12.00509 | 11225 ft | 273 kts | 84° |
| 2026-05-04 18:32 | 48.47832 | 12.03327 | 10801 ft | 271 kts | 84° |
| 2026-05-04 18:32 | 48.48114 | 12.06126 | 10387 ft | 269 kts | 84° |
| 2026-05-04 18:32 | 48.48390 | 12.08915 | 9983 ft | 268 kts | 84° |
| 2026-05-04 18:33 | 48.48662 | 12.11679 | 9548 ft | 266 kts | 84° |
| 2026-05-04 18:33 | 48.48924 | 12.14423 | 9149 ft | 263 kts | 84° |
| 2026-05-04 18:33 | 48.49176 | 12.17104 | 8738 ft | 261 kts | 84° |
| 2026-05-04 18:33 | 48.49424 | 12.19798 | 8333 ft | 257 kts | 84° |
| 2026-05-04 18:34 | 48.49661 | 12.22459 | 7939 ft | 255 kts | 84° |
| 2026-05-04 18:34 | 48.49890 | 12.25096 | 7555 ft | 252 kts | 84° |
| 2026-05-04 18:34 | 48.50110 | 12.27701 | 7259 ft | 250 kts | 84° |
| 2026-05-04 18:34 | 48.50326 | 12.30302 | 7057 ft | 250 kts | 85° |
| 2026-05-04 18:35 | 48.50158 | 12.32853 | 6841 ft | 245 kts | 116° |
| 2026-05-04 18:35 | 48.49050 | 12.34714 | 6631 ft | 240 kts | 153° |
| 2026-05-04 18:35 | 48.47454 | 12.35349 | 6464 ft | 239 kts | 173° |
| 2026-05-04 18:35 | 48.45818 | 12.35610 | 6273 ft | 240 kts | 174° |
| 2026-05-04 18:36 | 48.44158 | 12.35853 | 6066 ft | 238 kts | 174° |
| 2026-05-04 18:36 | 48.42508 | 12.36086 | 5750 ft | 238 kts | 176° |
| 2026-05-04 18:36 | 48.40898 | 12.35659 | 5442 ft | 238 kts | 205° |
| 2026-05-04 18:36 | 48.39612 | 12.34112 | 5102 ft | 240 kts | 233° |
| 2026-05-04 18:37 | 48.38975 | 12.31833 | 4931 ft | 238 kts | 262° |
| 2026-05-04 18:37 | 48.39118 | 12.29363 | 4969 ft | 241 kts | 285° |
| 2026-05-04 18:37 | 48.39524 | 12.26900 | 4978 ft | 244 kts | 281° |